createdAt,value
2019-02-17T00:00:00.323Z,0.22
2019-02-17T00:02:08.370Z,0.21
2019-02-17T00:04:14.667Z,0.18
2019-02-17T00:06:20.916Z,0.18
2019-02-17T00:08:27.147Z,0.17
2019-02-17T00:10:33.310Z,0.14
2019-02-17T00:12:39.569Z,0.13
2019-02-17T00:14:45.737Z,0.11
2019-02-17T00:16:51.969Z,0.09
2019-02-17T00:18:58.311Z,0.08
2019-02-17T00:21:04.762Z,0.03
2019-02-17T00:23:10.908Z,0.04
2019-02-17T00:25:17.314Z,0.04
2019-02-17T00:27:23.692Z,0.04
2019-02-17T00:29:30.051Z,0.03
2019-02-17T00:31:36.368Z,0.00
2019-02-17T00:33:42.687Z,-0.01
2019-02-17T00:35:48.988Z,-0.03
2019-02-17T00:37:55.379Z,-0.01
2019-02-17T00:40:01.716Z,-0.03
2019-02-17T00:42:08.466Z,-0.03
2019-02-17T00:44:14.747Z,-0.04
2019-02-17T00:46:21.549Z,-0.05
2019-02-17T00:48:27.919Z,-0.05
2019-02-17T00:50:34.179Z,-0.06
2019-02-17T00:52:40.487Z,-0.05
2019-02-17T00:54:46.725Z,-0.04
2019-02-17T00:56:53.192Z,-0.03
2019-02-17T00:59:09.337Z,-0.01
2019-02-17T01:01:08.439Z,-0.02
2019-02-17T01:03:14.756Z,-0.04
2019-02-17T01:05:21.406Z,-0.05
2019-02-17T01:07:27.756Z,-0.07
2019-02-17T01:09:34.130Z,-0.08
2019-02-17T01:11:40.441Z,-0.09
2019-02-17T01:13:46.846Z,-0.05
2019-02-17T01:15:53.187Z,-0.03
2019-02-17T01:17:59.558Z,-0.04
2019-02-17T01:20:08.921Z,0.00
2019-02-17T01:22:15.317Z,0.03
2019-02-17T01:24:21.467Z,0.05
2019-02-17T01:26:27.782Z,0.09
2019-02-17T01:28:34.108Z,0.14
2019-02-17T01:30:40.547Z,0.21
2019-02-17T01:32:46.708Z,0.26
2019-02-17T01:34:52.893Z,0.26
2019-02-17T01:36:59.130Z,0.29
2019-02-17T01:39:07.793Z,0.32
2019-02-17T01:41:14.128Z,0.34
2019-02-17T01:43:20.405Z,0.34
2019-02-17T01:45:26.739Z,0.33
2019-02-17T01:47:33.006Z,0.31
2019-02-17T01:49:39.318Z,0.29
2019-02-17T01:51:45.554Z,0.31
2019-02-17T01:53:51.797Z,0.32
2019-02-17T01:55:58.034Z,0.31
2019-02-17T01:58:04.261Z,0.31
2019-02-17T02:00:16.023Z,0.38
2019-02-17T02:02:22.321Z,0.38
2019-02-17T02:04:28.682Z,0.38
2019-02-17T02:06:35.028Z,0.38
2019-02-17T02:08:41.248Z,0.38
2019-02-17T02:10:47.555Z,0.42
2019-02-17T02:12:53.820Z,0.41
2019-02-17T02:15:00.049Z,0.40
2019-02-17T02:17:06.412Z,0.40
2019-02-17T02:19:12.662Z,0.41
2019-02-17T02:21:18.814Z,0.40
2019-02-17T02:23:25.040Z,0.39
2019-02-17T02:25:32.270Z,0.39
2019-02-17T02:27:38.432Z,0.35
2019-02-17T02:29:44.586Z,0.32
2019-02-17T02:31:50.919Z,0.30
2019-02-17T02:33:57.094Z,0.27
2019-02-17T02:36:03.478Z,0.24
2019-02-17T02:38:09.669Z,0.22
2019-02-17T02:40:15.893Z,0.25
2019-02-17T02:42:22.123Z,0.28
2019-02-17T02:44:28.449Z,0.28
2019-02-17T02:46:34.675Z,0.29
2019-02-17T02:48:40.844Z,0.29
2019-02-17T02:50:47.095Z,0.30
2019-02-17T02:52:53.323Z,0.29
2019-02-17T02:54:59.546Z,0.29
2019-02-17T02:57:05.881Z,0.27
2019-02-17T02:59:12.066Z,0.23
2019-02-17T03:01:18.300Z,0.20
2019-02-17T03:03:24.572Z,0.16
2019-02-17T03:05:30.911Z,0.14
2019-02-17T03:07:37.147Z,0.12
2019-02-17T03:09:44.338Z,0.11
2019-02-17T03:11:50.664Z,0.17
2019-02-17T03:13:56.837Z,0.20
2019-02-17T03:16:03.103Z,0.21
2019-02-17T03:18:09.388Z,0.25
2019-02-17T03:20:15.655Z,0.24
2019-02-17T03:22:21.973Z,0.23
2019-02-17T03:24:28.134Z,0.21
2019-02-17T03:26:34.375Z,0.21
2019-02-17T03:28:40.619Z,0.19
2019-02-17T03:30:46.848Z,0.17
2019-02-17T03:32:53.219Z,0.20
2019-02-17T03:34:59.399Z,0.20
2019-02-17T03:37:05.743Z,0.22
2019-02-17T03:39:11.887Z,0.22
2019-02-17T03:41:18.249Z,0.23
2019-02-17T03:43:24.406Z,0.26
2019-02-17T03:45:30.709Z,0.27
2019-02-17T03:47:36.912Z,0.26
2019-02-17T03:49:43.070Z,0.24
2019-02-17T03:51:49.309Z,0.26
2019-02-17T03:53:55.703Z,0.26
2019-02-17T03:56:01.939Z,0.25
2019-02-17T03:58:08.128Z,0.24
2019-02-17T04:00:17.226Z,0.26
2019-02-17T04:02:22.387Z,0.27
2019-02-17T04:04:28.697Z,0.26
2019-02-17T04:06:34.946Z,0.25
2019-02-17T04:08:41.105Z,0.25
2019-02-17T04:10:47.262Z,0.25
2019-02-17T04:12:53.531Z,0.26
2019-02-17T04:14:59.686Z,0.25
2019-02-17T04:17:05.923Z,0.27
2019-02-17T04:19:12.111Z,0.29
2019-02-17T04:21:18.353Z,0.28
2019-02-17T04:23:31.272Z,0.30
2019-02-17T04:25:33.398Z,0.32
2019-02-17T04:27:39.626Z,0.32
2019-02-17T04:29:45.796Z,0.31
2019-02-17T04:31:53.058Z,0.31
2019-02-17T04:33:59.283Z,0.29
2019-02-17T04:36:05.461Z,0.28
2019-02-17T04:38:11.902Z,0.29
2019-02-17T04:40:18.327Z,0.27
2019-02-17T04:42:24.629Z,0.27
2019-02-17T04:44:30.880Z,0.26
2019-02-17T04:46:37.034Z,0.27
2019-02-17T04:48:43.327Z,0.26
2019-02-17T04:50:49.580Z,0.24
2019-02-17T04:52:55.862Z,0.23
2019-02-17T04:55:03.131Z,0.24
2019-02-17T04:57:09.413Z,0.24
2019-02-17T04:59:15.644Z,0.24
2019-02-17T05:01:21.994Z,0.24
2019-02-17T05:03:28.327Z,0.23
2019-02-17T05:05:34.556Z,0.20
2019-02-17T05:07:40.718Z,0.19
2019-02-17T05:09:47.223Z,0.17
2019-02-17T05:11:53.385Z,0.16
2019-02-17T05:13:59.545Z,0.14
2019-02-17T05:16:06.016Z,0.16
2019-02-17T05:18:12.168Z,0.18
2019-02-17T05:20:18.321Z,0.19
2019-02-17T05:22:24.672Z,0.18
2019-02-17T05:24:30.833Z,0.18
2019-02-17T05:26:36.996Z,0.17
2019-02-17T05:28:43.249Z,0.17
2019-02-17T05:30:52.906Z,0.19
2019-02-17T05:32:57.275Z,0.20
2019-02-17T05:35:03.620Z,0.20
2019-02-17T05:37:09.808Z,0.21
2019-02-17T05:39:15.966Z,0.20
2019-02-17T05:41:22.145Z,0.19
2019-02-17T05:43:28.445Z,0.20
2019-02-17T05:45:34.680Z,0.22
2019-02-17T05:47:40.876Z,0.24
2019-02-17T05:49:47.092Z,0.25
2019-02-17T05:51:53.187Z,0.28
2019-02-17T05:53:59.449Z,0.29
2019-02-17T05:56:05.678Z,0.30
2019-02-17T05:58:11.972Z,0.32
2019-02-17T06:00:20.475Z,0.34
2019-02-17T06:02:26.638Z,0.38
2019-02-17T06:04:32.794Z,0.42
2019-02-17T06:06:39.053Z,0.47
2019-02-17T06:08:45.281Z,0.51
2019-02-17T06:10:51.432Z,0.57
2019-02-17T06:12:57.781Z,0.62
2019-02-17T06:15:04.115Z,0.69
2019-02-17T06:17:10.361Z,0.77
2019-02-17T06:19:17.837Z,0.86
2019-02-17T06:21:24.254Z,0.99
2019-02-17T06:23:30.417Z,1.15
2019-02-17T06:25:36.597Z,1.22
2019-02-17T06:27:42.832Z,1.28
2019-02-17T06:29:49.216Z,1.39
2019-02-17T06:31:55.537Z,1.50
2019-02-17T06:34:01.715Z,1.75
2019-02-17T06:36:08.110Z,2.04
2019-02-17T06:38:14.368Z,2.39
2019-02-17T06:40:20.541Z,3.00
2019-02-17T06:42:26.762Z,3.89
2019-02-17T06:44:32.957Z,4.99
2019-02-17T06:46:40.842Z,6.02
2019-02-17T06:48:47.003Z,6.65
2019-02-17T06:50:53.268Z,7.40
2019-02-17T06:52:59.505Z,8.10
2019-02-17T06:55:16.854Z,9.54
2019-02-17T06:57:24.632Z,10.23
2019-02-17T06:59:30.862Z,10.56
2019-02-17T07:01:36.949Z,11.17
2019-02-17T07:03:44.361Z,12.36
2019-02-17T07:05:52.174Z,13.70
2019-02-17T07:07:58.323Z,14.61
2019-02-17T07:10:05.653Z,14.55
2019-02-17T07:12:12.108Z,14.36
2019-02-17T07:14:18.270Z,14.33
2019-02-17T07:16:24.533Z,14.44
2019-02-17T07:18:30.685Z,14.61
2019-02-17T07:20:36.858Z,14.46
2019-02-17T07:22:43.044Z,13.71
2019-02-17T07:24:49.443Z,12.43
2019-02-17T07:26:55.683Z,11.33
2019-02-17T07:29:02.013Z,10.83
2019-02-17T07:31:08.215Z,11.04
2019-02-17T07:33:14.440Z,11.08
2019-02-17T07:35:20.788Z,11.20
2019-02-17T07:37:33.603Z,11.77
2019-02-17T07:39:34.892Z,12.67
2019-02-17T07:41:41.163Z,13.46
2019-02-17T07:43:47.356Z,14.53
2019-02-17T07:45:53.505Z,15.74
2019-02-17T07:47:59.774Z,16.25
2019-02-17T07:50:09.942Z,16.60
2019-02-17T07:52:16.116Z,16.71
2019-02-17T07:54:22.369Z,16.86
2019-02-17T07:56:28.591Z,16.34
2019-02-17T07:58:34.885Z,15.24
2019-02-17T08:00:41.222Z,14.80
2019-02-17T08:02:49.553Z,16.40
2019-02-17T08:04:55.267Z,17.82
2019-02-17T08:07:01.572Z,19.08
2019-02-17T08:09:07.808Z,20.36
2019-02-17T08:11:14.122Z,19.93
2019-02-17T08:13:20.377Z,16.19
2019-02-17T08:15:26.658Z,13.73
2019-02-17T08:17:32.901Z,12.21
2019-02-17T08:19:39.226Z,10.92
2019-02-17T08:21:45.463Z,9.99
2019-02-17T08:23:51.730Z,9.52
2019-02-17T08:25:58.015Z,9.27
2019-02-17T08:28:04.254Z,8.72
2019-02-17T08:30:14.468Z,8.71
2019-02-17T08:32:20.804Z,8.77
2019-02-17T08:34:27.143Z,8.86
2019-02-17T08:36:33.359Z,8.84
2019-02-17T08:38:39.698Z,8.85
2019-02-17T08:40:45.931Z,8.55
2019-02-17T08:42:52.177Z,8.35
2019-02-17T08:44:58.358Z,8.37
2019-02-17T08:47:04.599Z,8.43
2019-02-17T08:49:10.833Z,8.46
2019-02-17T08:51:17.030Z,8.16
2019-02-17T08:53:23.259Z,8.18
2019-02-17T08:55:29.429Z,8.24
2019-02-17T08:57:37.971Z,8.32
2019-02-17T08:59:45.843Z,8.43
2019-02-17T09:01:52.000Z,8.72
2019-02-17T09:03:58.268Z,8.61
2019-02-17T09:06:04.352Z,8.49
2019-02-17T09:08:10.577Z,8.25
2019-02-17T09:10:16.842Z,8.33
2019-02-17T09:12:23.211Z,8.60
2019-02-17T09:14:29.372Z,8.71
2019-02-17T09:16:35.739Z,8.58
2019-02-17T09:18:41.952Z,8.35
2019-02-17T09:20:48.195Z,8.53
2019-02-17T09:22:54.557Z,8.38
2019-02-17T09:25:00.801Z,8.25
2019-02-17T09:27:07.170Z,8.35
2019-02-17T09:29:13.424Z,8.50
2019-02-17T09:31:21.352Z,8.46
2019-02-17T09:33:27.574Z,8.30
2019-02-17T09:35:33.909Z,8.34
2019-02-17T09:37:40.207Z,8.31
2019-02-17T09:39:46.359Z,8.39
2019-02-17T09:41:52.802Z,8.33
2019-02-17T09:43:58.967Z,8.46
2019-02-17T09:46:05.415Z,8.48
2019-02-17T09:48:11.690Z,8.49
2019-02-17T09:50:17.951Z,8.41
2019-02-17T09:52:24.177Z,8.45
2019-02-17T09:54:30.615Z,8.57
2019-02-17T09:56:36.868Z,8.58
2019-02-17T09:58:43.108Z,8.76
2019-02-17T10:00:49.499Z,8.84
2019-02-17T10:02:55.883Z,8.94
2019-02-17T10:05:02.108Z,9.06
2019-02-17T10:07:08.470Z,9.21
2019-02-17T10:09:14.768Z,9.11
2019-02-17T10:11:21.148Z,9.20
2019-02-17T10:13:27.537Z,9.28
2019-02-17T10:15:33.696Z,9.27
2019-02-17T10:17:39.917Z,9.24
2019-02-17T10:19:46.228Z,9.21
2019-02-17T10:21:52.387Z,9.46
2019-02-17T10:23:59.422Z,9.64
2019-02-17T10:26:05.729Z,9.74
2019-02-17T10:28:13.135Z,9.82
2019-02-17T10:30:19.577Z,10.13
2019-02-17T10:32:36.278Z,10.33
2019-02-17T10:34:34.078Z,10.48
2019-02-17T10:36:40.469Z,10.46
2019-02-17T10:38:46.911Z,10.28
2019-02-17T10:40:53.238Z,10.20
2019-02-17T10:42:59.519Z,10.13
2019-02-17T10:45:06.415Z,10.14
2019-02-17T10:47:12.808Z,10.24
2019-02-17T10:49:19.453Z,10.01
2019-02-17T10:51:26.548Z,9.99
2019-02-17T10:53:32.880Z,9.94
2019-02-17T10:55:39.953Z,9.87
2019-02-17T10:57:46.295Z,9.79
2019-02-17T10:59:52.530Z,9.70
2019-02-17T11:01:58.916Z,9.63
2019-02-17T11:04:08.339Z,9.55
2019-02-17T11:06:14.920Z,9.63
2019-02-17T11:08:21.145Z,9.64
2019-02-17T11:10:28.442Z,9.65
2019-02-17T11:12:34.735Z,9.66
2019-02-17T11:14:40.955Z,9.74
2019-02-17T11:16:47.496Z,9.90
2019-02-17T11:18:53.734Z,9.93
2019-02-17T11:21:00.184Z,9.87
2019-02-17T11:23:06.511Z,9.93
2019-02-17T11:25:14.611Z,9.91
2019-02-17T11:27:20.961Z,9.88
2019-02-17T11:29:27.140Z,9.76
2019-02-17T11:31:33.525Z,9.65
2019-02-17T11:33:42.384Z,9.64
2019-02-17T11:35:48.708Z,9.78
2019-02-17T11:37:56.265Z,9.88
2019-02-17T11:40:02.559Z,9.73
2019-02-17T11:42:08.900Z,9.60
2019-02-17T11:44:15.255Z,9.71
2019-02-17T11:46:21.703Z,9.65
2019-02-17T11:48:28.152Z,9.65
2019-02-17T11:50:34.898Z,9.73
2019-02-17T11:52:41.142Z,9.58
2019-02-17T11:54:47.782Z,9.56
2019-02-17T11:56:54.222Z,9.73
2019-02-17T11:59:01.502Z,9.87
2019-02-17T12:01:07.810Z,10.03
2019-02-17T12:03:14.062Z,10.00
2019-02-17T12:05:21.505Z,9.94
2019-02-17T12:07:28.688Z,10.03
2019-02-17T12:09:35.172Z,10.02
2019-02-17T12:11:41.470Z,10.04
2019-02-17T12:13:48.014Z,10.02
2019-02-17T12:15:54.427Z,10.12
2019-02-17T12:18:02.397Z,10.31
2019-02-17T12:20:35.669Z,10.42
2019-02-17T12:22:41.974Z,10.51
2019-02-17T12:24:49.092Z,10.45
2019-02-17T12:26:57.068Z,10.59
2019-02-17T12:29:05.611Z,10.34
2019-02-17T12:31:14.294Z,10.24
2019-02-17T12:33:22.052Z,10.33
2019-02-17T12:35:29.670Z,10.31
2019-02-17T12:37:36.001Z,10.46
2019-02-17T12:39:42.275Z,10.52
2019-02-17T12:41:48.719Z,10.45
2019-02-17T12:43:54.945Z,10.43
2019-02-17T12:46:01.314Z,10.56
2019-02-17T12:48:09.009Z,10.47
2019-02-17T12:50:15.458Z,10.25
2019-02-17T12:52:21.853Z,10.18
2019-02-17T12:54:29.449Z,10.17
2019-02-17T12:56:36.987Z,10.14
2019-02-17T12:58:43.246Z,10.10
2019-02-17T13:00:51.239Z,10.16
2019-02-17T13:02:57.498Z,10.28
2019-02-17T13:05:04.168Z,10.31
2019-02-17T13:07:10.400Z,10.25
2019-02-17T13:09:17.639Z,10.13
2019-02-17T13:11:24.036Z,9.96
2019-02-17T13:13:30.273Z,9.92
2019-02-17T13:15:36.676Z,9.94
2019-02-17T13:17:42.878Z,9.94
2019-02-17T13:19:49.772Z,9.96
2019-02-17T13:21:56.077Z,10.00
2019-02-17T13:24:02.411Z,9.99
2019-02-17T13:26:08.819Z,9.87
2019-02-17T13:28:15.051Z,9.93
2019-02-17T13:30:24.901Z,9.95
2019-02-17T13:32:31.140Z,9.97
2019-02-17T13:34:37.518Z,9.90
2019-02-17T13:36:43.781Z,9.88
2019-02-17T13:38:50.074Z,9.88
2019-02-17T13:40:58.244Z,9.87
2019-02-17T13:43:04.643Z,9.73
2019-02-17T13:45:13.998Z,9.72
2019-02-17T13:47:20.296Z,9.75
2019-02-17T13:49:26.637Z,9.78
2019-02-17T13:51:34.505Z,9.74
2019-02-17T13:53:42.165Z,9.76
2019-02-17T13:55:49.846Z,9.73
2019-02-17T13:57:56.067Z,9.71
2019-02-17T14:00:05.603Z,9.61
2019-02-17T14:02:12.373Z,9.68
2019-02-17T14:04:19.051Z,9.71
2019-02-17T14:06:25.210Z,9.65
2019-02-17T14:08:33.872Z,9.61
2019-02-17T14:10:41.809Z,9.55
2019-02-17T14:12:48.118Z,9.54
2019-02-17T14:14:55.589Z,9.56
2019-02-17T14:17:01.836Z,9.52
2019-02-17T14:19:08.209Z,9.46
2019-02-17T14:21:16.175Z,9.49
2019-02-17T14:23:22.609Z,9.51
2019-02-17T14:25:31.539Z,9.50
2019-02-17T14:27:37.856Z,9.52
2019-02-17T14:29:45.854Z,9.47
2019-02-17T14:31:52.224Z,9.38
2019-02-17T14:33:58.936Z,9.39
2019-02-17T14:36:06.776Z,9.35
2019-02-17T14:38:13.131Z,9.31
2019-02-17T14:40:21.645Z,9.31
2019-02-17T14:42:28.085Z,9.26
2019-02-17T14:44:34.385Z,9.28
2019-02-17T14:46:42.691Z,9.28
2019-02-17T14:48:48.979Z,9.20
2019-02-17T14:50:55.276Z,9.20
2019-02-17T14:53:03.234Z,9.13
2019-02-17T14:55:14.073Z,9.14
2019-02-17T14:57:23.807Z,9.09
2019-02-17T14:59:30.125Z,9.09
2019-02-17T15:01:39.302Z,9.05
2019-02-17T15:03:47.298Z,9.06
2019-02-17T15:05:53.804Z,9.09
2019-02-17T15:08:00.193Z,9.02
2019-02-17T15:10:12.396Z,9.02
2019-02-17T15:12:18.793Z,8.98
2019-02-17T15:14:25.279Z,8.93
2019-02-17T15:16:33.207Z,8.94
2019-02-17T15:18:39.522Z,8.85
2019-02-17T15:20:45.927Z,8.83
2019-02-17T15:22:52.224Z,8.81
2019-02-17T15:24:59.814Z,8.79
2019-02-17T15:27:06.264Z,8.75
2019-02-17T15:29:14.190Z,8.70
2019-02-17T15:31:21.977Z,8.68
2019-02-17T15:33:33.487Z,8.61
2019-02-17T15:35:39.847Z,8.62
2019-02-17T15:37:46.254Z,8.60
2019-02-17T15:39:54.486Z,8.57
2019-02-17T15:42:00.845Z,8.58
2019-02-17T15:44:07.261Z,8.56
2019-02-17T15:46:13.611Z,8.52
2019-02-17T15:48:19.987Z,8.49
2019-02-17T15:50:29.094Z,8.44
2019-02-17T15:52:36.240Z,8.43
2019-02-17T15:54:44.697Z,8.41
2019-02-17T15:56:51.087Z,8.38
2019-02-17T15:59:00.155Z,8.37
2019-02-17T16:01:05.591Z,8.37
2019-02-17T16:03:11.836Z,8.36
2019-02-17T16:05:18.299Z,8.34
2019-02-17T16:07:24.763Z,8.32
2019-02-17T16:09:32.949Z,8.30
2019-02-17T16:11:39.318Z,8.27
2019-02-17T16:13:49.421Z,8.27
2019-02-17T16:15:55.818Z,8.28
2019-02-17T16:18:02.107Z,8.29
2019-02-17T16:20:13.463Z,8.27
2019-02-17T16:22:20.012Z,8.26
2019-02-17T16:24:26.305Z,8.25
2019-02-17T16:26:32.619Z,8.26
2019-02-17T16:28:40.223Z,8.23
2019-02-17T16:30:47.978Z,8.22
2019-02-17T16:32:56.039Z,8.19
2019-02-17T16:35:02.439Z,8.19
2019-02-17T16:37:08.664Z,8.17
2019-02-17T16:39:15.070Z,8.17
2019-02-17T16:41:21.485Z,8.14
2019-02-17T16:43:27.912Z,8.14
2019-02-17T16:45:34.220Z,8.14
2019-02-17T16:47:42.570Z,8.13
2019-02-17T16:49:48.937Z,8.14
2019-02-17T16:51:57.565Z,8.11
2019-02-17T16:54:04.624Z,8.05
2019-02-17T16:56:11.569Z,8.03
2019-02-17T16:58:18.749Z,8.01
2019-02-17T17:00:28.769Z,7.99
2019-02-17T17:02:38.001Z,8.06
2019-02-17T17:04:48.402Z,8.01
2019-02-17T17:06:54.155Z,7.98
2019-02-17T17:09:00.383Z,7.97
2019-02-17T17:11:09.853Z,7.96
2019-02-17T17:13:17.654Z,7.95
2019-02-17T17:15:23.813Z,7.93
2019-02-17T17:17:31.814Z,7.90
2019-02-17T17:19:38.139Z,7.85
2019-02-17T17:21:44.359Z,7.83
2019-02-17T17:23:52.291Z,7.81
2019-02-17T17:25:58.611Z,7.80
2019-02-17T17:28:04.913Z,7.80
2019-02-17T17:30:16.980Z,7.82
2019-02-17T17:32:23.183Z,7.83
2019-02-17T17:34:29.557Z,7.87
2019-02-17T17:36:36.419Z,7.89
2019-02-17T17:38:43.026Z,7.87
2019-02-17T17:40:49.465Z,7.84
2019-02-17T17:42:55.690Z,7.81
2019-02-17T17:45:06.307Z,7.81
2019-02-17T17:47:14.146Z,7.81
2019-02-17T17:49:20.558Z,7.78
2019-02-17T17:51:27.669Z,7.79
2019-02-17T17:53:36.614Z,7.78
2019-02-17T17:55:42.913Z,7.78
2019-02-17T17:57:49.308Z,7.78
2019-02-17T17:59:57.255Z,7.79
2019-02-17T18:02:06.766Z,7.80
2019-02-17T18:04:13.855Z,7.82
2019-02-17T18:06:20.218Z,7.82
2019-02-17T18:08:28.686Z,7.81
2019-02-17T18:10:36.577Z,7.83
2019-02-17T18:12:42.889Z,7.82
2019-02-17T18:14:52.597Z,7.81
2019-02-17T18:16:59.077Z,7.77
2019-02-17T18:19:05.994Z,7.77
2019-02-17T18:21:12.445Z,7.76
2019-02-17T18:23:21.325Z,7.77
2019-02-17T18:25:27.684Z,7.80
2019-02-17T18:27:36.011Z,7.78
2019-02-17T18:29:43.196Z,7.81
2019-02-17T18:31:49.441Z,7.79
2019-02-17T18:33:55.730Z,7.78
2019-02-17T18:36:02.230Z,7.78
2019-02-17T18:38:08.538Z,7.80
2019-02-17T18:40:20.365Z,7.79
2019-02-17T18:42:28.546Z,7.77
2019-02-17T18:44:36.418Z,7.76
2019-02-17T18:46:44.162Z,7.73
2019-02-17T18:48:52.457Z,7.71
2019-02-17T18:51:02.515Z,7.70
2019-02-17T18:53:10.827Z,7.71
2019-02-17T18:55:18.808Z,7.72
2019-02-17T18:57:25.266Z,7.79
2019-02-17T18:59:33.560Z,7.77
2019-02-17T19:01:39.954Z,7.78
2019-02-17T19:03:50.677Z,7.75
2019-02-17T19:05:57.046Z,7.70
2019-02-17T19:08:03.380Z,7.67
2019-02-17T19:10:14.148Z,7.62
2019-02-17T19:12:22.014Z,7.59
2019-02-17T19:14:30.058Z,7.59
2019-02-17T19:16:39.218Z,7.58
2019-02-17T19:18:44.732Z,7.56
2019-02-17T19:20:54.825Z,7.55
2019-02-17T19:23:01.970Z,7.53
2019-02-17T19:25:12.591Z,7.56
2019-02-17T19:27:22.283Z,7.59
2019-02-17T19:29:31.851Z,7.61
2019-02-17T19:31:40.958Z,7.63
2019-02-17T19:33:48.755Z,7.65
2019-02-17T19:35:58.196Z,7.65
2019-02-17T19:38:05.214Z,7.61
2019-02-17T19:40:14.668Z,7.61
2019-02-17T19:42:21.103Z,7.61
2019-02-17T19:44:33.347Z,7.61
2019-02-17T19:46:47.802Z,7.62
2019-02-17T19:48:57.582Z,7.60
2019-02-17T19:51:04.541Z,7.61
2019-02-17T19:53:12.197Z,7.60
2019-02-17T19:55:18.497Z,7.55
2019-02-17T19:57:28.906Z,7.53
2019-02-17T19:59:36.092Z,7.53
2019-02-17T20:01:45.445Z,7.54
2019-02-17T20:04:00.745Z,7.54
2019-02-17T20:06:09.724Z,7.54
2019-02-17T20:08:17.236Z,7.48
2019-02-17T20:10:24.160Z,7.49
2019-02-17T20:12:31.652Z,7.49
2019-02-17T20:14:39.399Z,7.47
2019-02-17T20:16:51.331Z,7.45
2019-02-17T20:19:01.640Z,7.46
2019-02-17T20:21:08.133Z,7.43
2019-02-17T20:23:16.087Z,7.41
2019-02-17T20:25:27.647Z,7.36
2019-02-17T20:27:34.020Z,7.33
2019-02-17T20:29:40.382Z,7.32
2019-02-17T20:31:47.027Z,7.30
2019-02-17T20:33:55.086Z,7.31
2019-02-17T20:36:07.746Z,7.31
2019-02-17T20:38:15.519Z,7.31
2019-02-17T20:40:21.892Z,7.28
2019-02-17T20:42:28.269Z,7.28
2019-02-17T20:44:36.240Z,7.29
2019-02-17T20:46:42.541Z,7.30
2019-02-17T20:48:52.366Z,7.31
2019-02-17T20:50:59.693Z,7.31
2019-02-17T20:53:06.103Z,7.29
2019-02-17T20:55:15.594Z,7.29
2019-02-17T20:57:23.554Z,7.27
2019-02-17T20:59:31.562Z,7.28
2019-02-17T21:01:39.738Z,7.25
2019-02-17T21:03:46.139Z,7.20
2019-02-17T21:05:54.136Z,7.17
2019-02-17T21:08:00.500Z,7.12
2019-02-17T21:10:12.356Z,7.13
2019-02-17T21:12:22.825Z,7.13
2019-02-17T21:14:30.849Z,7.13
2019-02-17T21:16:38.490Z,7.11
2019-02-17T21:18:44.755Z,7.08
2019-02-17T21:20:51.114Z,7.07
2019-02-17T21:22:57.508Z,7.03
2019-02-17T21:25:10.669Z,7.00
2019-02-17T21:27:17.709Z,6.96
2019-02-17T21:29:24.602Z,6.92
2019-02-17T21:31:32.308Z,6.85
2019-02-17T21:33:40.162Z,6.80
2019-02-17T21:35:47.980Z,6.75
2019-02-17T21:37:54.268Z,6.74
2019-02-17T21:40:02.256Z,6.71
2019-02-17T21:42:10.337Z,6.68
2019-02-17T21:44:22.054Z,6.66
2019-02-17T21:46:28.363Z,6.61
2019-02-17T21:48:35.568Z,6.56
2019-02-17T21:50:41.936Z,6.51
2019-02-17T21:52:48.318Z,6.44
2019-02-17T21:54:56.044Z,6.36
2019-02-17T21:57:02.411Z,6.32
2019-02-17T21:59:08.571Z,6.26
2019-02-17T22:01:14.899Z,6.19
2019-02-17T22:03:21.267Z,6.15
2019-02-17T22:05:28.748Z,6.11
2019-02-17T22:07:36.635Z,6.05
2019-02-17T22:09:43.002Z,5.96
2019-02-17T22:11:50.293Z,5.83
2019-02-17T22:13:56.676Z,5.77
2019-02-17T22:16:03.222Z,5.71
2019-02-17T22:18:09.594Z,5.67
2019-02-17T22:20:15.839Z,5.59
2019-02-17T22:22:22.130Z,5.53
2019-02-17T22:24:28.424Z,5.47
2019-02-17T22:26:34.764Z,5.42
2019-02-17T22:28:42.470Z,5.40
2019-02-17T22:30:48.736Z,5.39
2019-02-17T22:32:55.001Z,5.36
2019-02-17T22:35:01.377Z,5.33
2019-02-17T22:37:07.544Z,5.29
2019-02-17T22:39:13.802Z,5.23
2019-02-17T22:41:20.115Z,5.19
2019-02-17T22:43:27.970Z,5.19
2019-02-17T22:45:34.452Z,5.19
2019-02-17T22:47:40.611Z,5.16
2019-02-17T22:49:46.902Z,5.15
2019-02-17T22:51:53.094Z,5.11
2019-02-17T22:53:59.331Z,5.08
2019-02-17T22:56:05.492Z,5.05
2019-02-17T22:58:11.843Z,5.06
2019-02-17T23:00:37.707Z,5.03
2019-02-17T23:02:45.398Z,4.97
2019-02-17T23:04:51.896Z,4.89
2019-02-17T23:06:58.158Z,4.83
2019-02-17T23:09:05.057Z,4.79
2019-02-17T23:11:12.849Z,4.77
2019-02-17T23:13:19.088Z,4.74
2019-02-17T23:15:25.253Z,4.66
2019-02-17T23:17:31.560Z,4.62
2019-02-17T23:19:37.821Z,4.58
2019-02-17T23:21:44.058Z,4.55
2019-02-17T23:23:50.262Z,4.54
2019-02-17T23:25:56.412Z,4.55
2019-02-17T23:28:02.641Z,4.57
2019-02-17T23:30:11.748Z,4.59
2019-02-17T23:32:17.238Z,4.62
2019-02-17T23:34:23.270Z,4.59
2019-02-17T23:36:29.642Z,4.62
2019-02-17T23:38:35.879Z,4.69
2019-02-17T23:40:42.040Z,4.72
2019-02-17T23:42:48.306Z,4.77
2019-02-17T23:44:54.534Z,4.80
2019-02-17T23:47:00.736Z,4.83
2019-02-17T23:49:07.067Z,4.84
2019-02-17T23:51:13.467Z,4.85
2019-02-17T23:53:19.833Z,4.86
2019-02-17T23:55:26.101Z,4.89
2019-02-17T23:57:32.336Z,4.93
2019-02-17T23:59:38.566Z,4.99
